Погода Омусатина неделю

Омусати, Намибия

22 - 28 июня
  • 22июня
    Сегодня
    +11°
    +29°
    Ясно и безоблачно
    ВремяПогодаТемператураВлажностьДавлениеВетер, м/сВероятность осадков
    02:00Ясно и безоблачно+13°C28 %672 мм3.9 м/с3 %
    05:00Ясно и безоблачно+12°C32 %671 мм3.9 м/с3 %
    08:00Ясно и безоблачно+11°C39 %673 мм3.9 м/с3 %
    11:00Ясно и безоблачно+22°C22 %677 мм5.3 м/с3 %
    14:00Ясно и безоблачно+28°C16 %676 мм5.9 м/с3 %
    17:00Ясно и безоблачно+27°C15 %674 мм4.4 м/с3 %
    20:00Ясно и безоблачно+21°C21 %674 мм4.2 м/с3 %
    23:00Ясно и безоблачно+17°C25 %673 мм4.6 м/с3 %
  • 23июня
    Воскресенье
    +11°
    +28°
    Ясно и безоблачно
    ВремяПогодаТемператураВлажностьДавлениеВетер, м/сВероятность осадков
    02:00Ясно и безоблачно+14°C31 %672 мм4.6 м/с3 %
    05:00Ясно и безоблачно+12°C34 %672 мм5.0 м/с3 %
    08:00Ясно и безоблачно+12°C37 %673 мм5.3 м/с3 %
    11:00Ясно и безоблачно+23°C25 %677 мм7.0 м/с3 %
    14:00Ясно и безоблачно+28°C16 %675 мм6.7 м/с3 %
    17:00Ясно и безоблачно+27°C16 %674 мм4.1 м/с3 %
    20:00Ясно и безоблачно+20°C23 %673 мм3.7 м/с3 %
    23:00Ясно и безоблачно+16°C27 %674 мм4.5 м/с3 %
  • 24июня
    Понедельник
    +12°
    +28°
    Ясно и безоблачно
    ВремяПогодаТемператураВлажностьДавлениеВетер, м/сВероятность осадков
    02:00Ясно и безоблачно+14°C36 %673 мм5.0 м/с3 %
    05:00Ясно и безоблачно+12°C40 %672 мм4.9 м/с3 %
    08:00Ясно и безоблачно+12°C44 %673 мм5.3 м/с3 %
    11:00Ясно и безоблачно+23°C31 %677 мм7.3 м/с3 %
    14:00Ясно и безоблачно+28°C22 %675 мм6.9 м/с3 %
    17:00Ясно и безоблачно+27°C22 %674 мм5.2 м/с3 %
    20:00Ясно и безоблачно+21°C30 %673 мм3.7 м/с3 %
    23:00Ясно и безоблачно+17°C36 %673 мм5.0 м/с3 %
  • 25июня
    Вторник
    +12°
    +28°
    Ясно и безоблачно
    ВремяПогодаТемператураВлажностьДавлениеВетер, м/сВероятность осадков
    02:00Ясно и безоблачно+16°C39 %673 мм5.5 м/с3 %
    05:00Ясно и безоблачно+13°C46 %672 мм5.3 м/с3 %
    08:00Ясно и безоблачно+13°C51 %674 мм5.9 м/с3 %
    11:00Ясно и безоблачно+23°C37 %677 мм8.4 м/с3 %
    14:00Ясно и безоблачно+28°C26 %675 мм7.8 м/с3 %
    17:00Ясно и безоблачно+27°C24 %674 мм6.0 м/с3 %
    20:00Практически безоблачно+21°C32 %673 мм3.8 м/с3 %
    23:00Ясно и безоблачно+16°C36 %672 мм4.6 м/с3 %
  • 26июня
    Среда
    +12°
    +28°
    Ясно и безоблачно
    ВремяПогодаТемператураВлажностьДавлениеВетер, м/сВероятность осадков
    02:00Ясно и безоблачно+16°C40 %672 мм5.9 м/с2 %
    05:00Ясно и безоблачно+13°C47 %672 мм6.2 м/с2 %
    08:00Ясно и безоблачно+13°C53 %673 мм6.4 м/с2 %
    11:00Ясно и безоблачно+23°C37 %676 мм8.7 м/с2 %
    14:00Ясно и безоблачно+28°C27 %674 мм8.1 м/с2 %
    17:00Ясно и безоблачно+27°C25 %673 мм5.6 м/с2 %
    20:00Ясно и безоблачно+21°C32 %672 мм3.6 м/с2 %
    23:00Ясно и безоблачно+17°C37 %672 мм4.5 м/с2 %
Мы используем cookies
Соглашаюсь